H75 weather

Hernando Village Airpark, Inc Airport
Hernando, Mississippi, United States

Public forecast

Using degrees Fahrenheit for public forecast. Weather courtesy of forecast.io.

Closest aviation weather report (METAR) to Hernando Village Airpark, Inc Airport

Closest report is Memphis International Airport, 15.0 nm (27.7 km) NNE. Retrieved 2019/10/22 17:54 UTC (34 minutes ago):

KMEM 221754Z 29016G21KT 10SM CLR 17/03 A3009 RMK AO2 SLP187 T01720028 10172 20089 51004

Closest aviation forecast (TAF) to Hernando Village Airpark, Inc Airport

Closest forecast is Memphis International Airport, 15.0 nm (27.7 km) NNE. Retrieved 2019/10/22 18:22 UTC (6 minutes ago):

TAF KMEM 221720Z 2218/2324 28011G18KT P6SM SKC FM230000 23006KT P6SM SKC FM231600 21009G15KT P6SM SKC FM232300 20007KT P6SM SKC